createdAt,value
2018-04-12T00:00:57.799Z,11.70
2018-04-12T00:05:00.343Z,11.70
2018-04-12T00:09:02.903Z,11.60
2018-04-12T00:13:06.263Z,11.50
2018-04-12T00:17:08.786Z,11.40
2018-04-12T00:21:12.095Z,11.40
2018-04-12T00:25:14.676Z,11.30
2018-04-12T00:29:17.992Z,11.40
2018-04-12T00:33:20.551Z,11.30
2018-04-12T00:37:23.110Z,11.40
2018-04-12T00:41:25.632Z,11.40
2018-04-12T00:45:28.227Z,11.40
2018-04-12T00:49:31.837Z,11.40
2018-04-12T00:53:47.125Z,11.50
2018-04-12T00:57:49.663Z,11.40
2018-04-12T01:01:52.189Z,11.50
2018-04-12T01:05:55.540Z,11.50
2018-04-12T01:09:58.091Z,11.40
2018-04-12T01:14:00.644Z,11.50
2018-04-12T01:18:03.185Z,11.60
2018-04-12T01:22:05.740Z,11.60
2018-04-12T01:26:08.288Z,11.60
2018-04-12T01:30:10.824Z,11.60
2018-04-12T01:34:13.365Z,11.60
2018-04-12T01:38:15.922Z,11.60
2018-04-12T01:42:18.452Z,11.60
2018-04-12T01:46:20.991Z,11.60
2018-04-12T01:50:23.555Z,11.60
2018-04-12T01:54:26.098Z,11.60
2018-04-12T01:58:28.651Z,11.60
2018-04-12T02:02:31.178Z,11.70
2018-04-12T02:06:34.479Z,11.60
2018-04-12T02:10:37.045Z,11.60
2018-04-12T02:14:39.581Z,11.60
2018-04-12T02:18:42.130Z,11.60
2018-04-12T02:22:44.664Z,11.60
2018-04-12T02:26:47.212Z,11.60
2018-04-12T02:30:50.534Z,11.60
2018-04-12T02:34:53.088Z,11.50
2018-04-12T02:38:56.403Z,11.50
2018-04-12T02:42:59.752Z,11.50
2018-04-12T02:47:02.276Z,11.50
2018-04-12T02:51:05.584Z,11.50
2018-04-12T02:55:08.912Z,11.40
2018-04-12T02:59:11.740Z,11.30
2018-04-12T03:03:14.275Z,11.30
2018-04-12T03:07:17.563Z,11.20
2018-04-12T03:11:20.144Z,11.10
2018-04-12T03:15:22.691Z,11.10
2018-04-12T03:19:25.240Z,11.10
2018-04-12T03:23:27.809Z,11.10
2018-04-12T03:27:31.112Z,11.00
2018-04-12T03:31:34.424Z,11.00
2018-04-12T03:35:36.967Z,10.90
2018-04-12T03:39:39.499Z,11.00
2018-04-12T03:43:42.796Z,10.90
2018-04-12T03:47:46.108Z,10.80
2018-04-12T03:51:48.646Z,10.80
2018-04-12T03:55:51.971Z,10.80
2018-04-12T03:59:55.288Z,10.70
2018-04-12T04:03:58.848Z,10.70
2018-04-12T04:08:01.368Z,10.70
2018-04-12T04:12:04.278Z,10.70
2018-04-12T04:16:18.691Z,10.70
2018-04-12T04:20:33.788Z,10.70
2018-04-12T04:24:36.348Z,10.60
2018-04-12T04:28:38.878Z,10.60
2018-04-12T04:32:42.212Z,10.60
2018-04-12T04:36:44.750Z,10.50
2018-04-12T04:40:47.298Z,10.60
2018-04-12T04:44:50.632Z,10.50
2018-04-12T04:48:57.577Z,10.50
2018-04-12T04:53:00.119Z,10.50
2018-04-12T04:57:02.661Z,10.50
2018-04-12T05:01:05.203Z,10.50
2018-04-12T05:05:08.505Z,10.50
2018-04-12T05:09:11.048Z,10.40
2018-04-12T05:13:13.563Z,10.40
2018-04-12T05:17:16.100Z,10.40
2018-04-12T05:21:18.637Z,10.40
2018-04-12T05:25:21.944Z,10.30
2018-04-12T05:29:25.247Z,10.30
2018-04-12T05:33:28.539Z,10.20
2018-04-12T05:37:31.072Z,10.20
2018-04-12T05:41:34.372Z,10.20
2018-04-12T05:45:36.916Z,10.10
2018-04-12T05:49:40.239Z,10.10
2018-04-12T05:53:42.767Z,10.10
2018-04-12T05:57:45.312Z,10.10
2018-04-12T06:01:47.848Z,10.10
2018-04-12T06:05:50.420Z,10.10
2018-04-12T06:09:52.960Z,10.10
2018-04-12T06:13:56.244Z,10.10
2018-04-12T06:17:58.782Z,10.00
2018-04-12T06:22:01.320Z,10.10
2018-04-12T06:26:04.624Z,10.10
2018-04-12T06:30:07.927Z,10.00
2018-04-12T06:34:11.215Z,10.00
2018-04-12T06:38:13.758Z,10.00
2018-04-12T06:42:16.292Z,10.00
2018-04-12T06:46:18.829Z,10.00
2018-04-12T06:50:21.373Z,10.00
2018-04-12T06:54:24.651Z,10.00
2018-04-12T06:58:27.187Z,10.00
2018-04-12T07:02:29.732Z,10.00
2018-04-12T07:06:32.268Z,10.10
2018-04-12T07:10:34.812Z,10.00
2018-04-12T07:14:37.353Z,10.10
2018-04-12T07:18:39.887Z,10.10
2018-04-12T07:22:43.191Z,10.10
2018-04-12T07:26:45.737Z,10.10
2018-04-12T07:30:48.275Z,10.10
2018-04-12T07:34:50.812Z,10.20
2018-04-12T07:38:53.332Z,10.20
2018-04-12T07:42:56.636Z,10.20
2018-04-12T07:46:59.171Z,10.20
2018-04-12T07:51:01.708Z,10.20
2018-04-12T07:55:04.248Z,10.20
2018-04-12T07:59:06.764Z,10.30
2018-04-12T08:03:10.068Z,10.30
2018-04-12T08:07:13.371Z,10.40
2018-04-12T08:11:16.687Z,10.40
2018-04-12T08:15:19.227Z,10.30
2018-04-12T08:19:21.739Z,10.40
2018-04-12T08:23:25.039Z,10.50
2018-04-12T08:27:28.354Z,10.50
2018-04-12T08:31:31.652Z,10.50
2018-04-12T08:35:34.956Z,10.50
2018-04-12T08:39:38.240Z,10.60
2018-04-12T08:43:40.775Z,10.50
2018-04-12T08:47:43.308Z,10.60
2018-04-12T08:51:45.848Z,10.60
2018-04-12T08:55:48.412Z,10.70
2018-04-12T08:59:50.951Z,10.70
2018-04-12T09:03:53.492Z,10.70
2018-04-12T09:07:56.028Z,10.80
2018-04-12T09:11:58.561Z,10.80
2018-04-12T09:16:01.096Z,10.90
2018-04-12T09:20:03.619Z,11.00
2018-04-12T09:24:06.161Z,11.00
2018-04-12T09:28:08.695Z,11.10
2018-04-12T09:32:11.230Z,11.20
2018-04-12T09:36:13.772Z,11.20
2018-04-12T09:40:16.287Z,11.30
2018-04-12T09:44:18.824Z,11.40
2018-04-12T09:48:22.121Z,11.50
2018-04-12T09:52:24.667Z,11.50
2018-04-12T09:56:27.198Z,11.60
2018-04-12T10:00:29.744Z,11.70
2018-04-12T10:04:32.268Z,11.70
2018-04-12T10:08:34.803Z,11.80
2018-04-12T10:12:37.339Z,11.80
2018-04-12T10:16:39.901Z,11.80
2018-04-12T10:20:42.451Z,11.90
2018-04-12T10:24:44.969Z,11.90
2018-04-12T10:28:47.543Z,11.90
2018-04-12T10:32:50.097Z,12.00
2018-04-12T10:36:52.617Z,12.00
2018-04-12T10:40:55.159Z,12.00
2018-04-12T10:44:57.680Z,12.00
2018-04-12T10:49:00.767Z,12.00
2018-04-12T10:53:03.323Z,12.10
2018-04-12T10:57:05.855Z,12.10
2018-04-12T11:01:08.384Z,12.20
2018-04-12T11:05:10.908Z,12.20
2018-04-12T11:09:13.452Z,12.20
2018-04-12T11:13:15.988Z,12.30
2018-04-12T11:17:18.524Z,12.30
2018-04-12T11:21:21.081Z,12.30
2018-04-12T11:25:24.369Z,12.40
2018-04-12T11:29:27.693Z,12.50
2018-04-12T11:33:30.996Z,12.50
2018-04-12T11:37:34.296Z,12.60
2018-04-12T11:41:37.700Z,12.60
2018-04-12T11:45:40.980Z,12.70
2018-04-12T11:49:43.629Z,12.70
2018-04-12T11:53:47.253Z,12.80
2018-04-12T11:57:50.587Z,12.80
2018-04-12T12:01:53.139Z,12.80
2018-04-12T12:05:55.659Z,12.90
2018-04-12T12:09:58.193Z,12.90
2018-04-12T12:14:00.731Z,13.00
2018-04-12T12:18:03.263Z,13.10
2018-04-12T12:22:05.796Z,13.30
2018-04-12T12:26:09.108Z,13.60
2018-04-12T12:30:12.413Z,13.70
2018-04-12T12:34:15.731Z,14.00
2018-04-12T12:38:18.267Z,13.90
2018-04-12T12:42:20.799Z,14.30
2018-04-12T12:46:24.100Z,15.00
2018-04-12T12:50:26.624Z,14.90
2018-04-12T12:54:29.161Z,15.30
2018-04-12T12:58:32.460Z,15.90
2018-04-12T13:02:35.763Z,16.10
2018-04-12T13:06:39.060Z,16.30
2018-04-12T13:10:42.345Z,16.40
2018-04-12T13:14:44.875Z,16.40
2018-04-12T13:18:47.410Z,16.60
2018-04-12T13:22:49.943Z,16.70
2018-04-12T13:26:52.481Z,16.80
2018-04-12T13:30:55.000Z,17.00
2018-04-12T13:34:58.295Z,17.30
2018-04-12T13:39:01.648Z,17.50
2018-04-12T13:43:04.185Z,17.40
2018-04-12T13:47:07.917Z,17.80
2018-04-12T13:51:10.449Z,17.80
2018-04-12T13:55:13.036Z,18.00
2018-04-12T13:59:15.543Z,18.20
2018-04-12T14:03:18.091Z,18.30
2018-04-12T14:07:20.638Z,18.50
2018-04-12T14:11:23.227Z,18.70
2018-04-12T14:15:25.772Z,18.70
2018-04-12T14:19:28.317Z,18.80
2018-04-12T14:23:30.856Z,18.90
2018-04-12T14:27:34.161Z,19.00
2018-04-12T14:31:37.447Z,19.10
2018-04-12T14:35:39.980Z,19.00
2018-04-12T14:39:42.515Z,19.10
2018-04-12T14:43:45.064Z,19.10
2018-04-12T14:47:47.611Z,19.10
2018-04-12T14:51:50.900Z,19.10
2018-04-12T14:55:54.200Z,19.10
2018-04-12T14:59:56.735Z,19.00
2018-04-12T15:03:59.288Z,19.10
2018-04-12T15:08:02.640Z,19.10
2018-04-12T15:12:05.183Z,19.00
2018-04-12T15:16:07.703Z,19.00
2018-04-12T15:20:10.240Z,19.10
2018-04-12T15:24:13.539Z,19.20
2018-04-12T15:28:16.915Z,19.20
2018-04-12T15:32:19.463Z,19.10
2018-04-12T15:36:21.987Z,19.20
2018-04-12T15:40:24.520Z,19.20
2018-04-12T15:44:27.059Z,19.20
2018-04-12T15:48:29.592Z,19.20
2018-04-12T15:52:32.959Z,19.20
2018-04-12T15:56:36.036Z,19.30
2018-04-12T16:00:38.593Z,19.30
2018-04-12T16:04:41.131Z,19.30
2018-04-12T16:08:44.433Z,19.40
2018-04-12T16:12:46.992Z,19.30
2018-04-12T16:16:49.523Z,19.30
2018-04-12T16:20:52.824Z,19.30
2018-04-12T16:24:56.124Z,19.30
2018-04-12T16:28:59.433Z,19.30
2018-04-12T16:33:01.973Z,19.20
2018-04-12T16:37:04.511Z,19.20
2018-04-12T16:41:07.048Z,19.20
2018-04-12T16:45:09.632Z,19.20
2018-04-12T16:49:12.176Z,19.10
2018-04-12T16:53:14.715Z,19.10
2018-04-12T16:57:17.264Z,19.10
2018-04-12T17:01:19.799Z,19.00
2018-04-12T17:05:23.084Z,19.00
2018-04-12T17:09:25.622Z,18.90
2018-04-12T17:13:28.159Z,19.00
2018-04-12T17:17:30.703Z,18.90
2018-04-12T17:21:33.240Z,18.90
2018-04-12T17:25:36.526Z,18.90
2018-04-12T17:29:39.064Z,18.80
2018-04-12T17:33:41.606Z,18.80
2018-04-12T17:37:44.145Z,18.80
2018-04-12T17:41:46.679Z,18.70
2018-04-12T17:45:49.959Z,18.60
2018-04-12T17:49:52.498Z,18.60
2018-04-12T17:53:55.040Z,18.60
2018-04-12T17:57:57.578Z,18.50
2018-04-12T18:02:00.112Z,18.40
2018-04-12T18:06:02.640Z,18.40
2018-04-12T18:10:05.187Z,18.30
2018-04-12T18:14:07.727Z,18.30
2018-04-12T18:18:10.261Z,18.30
2018-04-12T18:22:13.583Z,18.10
2018-04-12T18:26:16.106Z,18.10
2018-04-12T18:30:18.646Z,18.10
2018-04-12T18:34:21.957Z,18.00
2018-04-12T18:38:24.507Z,18.00
2018-04-12T18:42:27.051Z,18.00
2018-04-12T18:46:29.592Z,18.00
2018-04-12T18:50:32.896Z,17.80
2018-04-12T18:54:36.175Z,17.80
2018-04-12T18:58:38.717Z,17.80
2018-04-12T19:02:41.260Z,17.70
2018-04-12T19:06:43.799Z,17.70
2018-04-12T19:10:46.337Z,17.70
2018-04-12T19:14:49.626Z,17.60
2018-04-12T19:18:52.160Z,17.50
2018-04-12T19:22:54.730Z,17.50
2018-04-12T19:26:57.344Z,17.50
2018-04-12T19:30:59.887Z,17.50
2018-04-12T19:35:03.199Z,17.30
2018-04-12T19:39:06.508Z,17.30
2018-04-12T19:43:09.047Z,17.30
2018-04-12T19:47:11.584Z,17.30
2018-04-12T19:51:14.116Z,17.20
2018-04-12T19:55:16.661Z,17.20
2018-04-12T19:59:19.180Z,17.20
2018-04-12T20:03:21.740Z,17.10
2018-04-12T20:07:24.281Z,17.10
2018-04-12T20:11:26.824Z,17.00
2018-04-12T20:15:29.438Z,17.00
2018-04-12T20:19:31.957Z,17.00
2018-04-12T20:23:34.508Z,16.90
2018-04-12T20:27:37.050Z,16.90
2018-04-12T20:31:39.717Z,16.80
2018-04-12T20:35:42.259Z,16.70
2018-04-12T20:39:44.784Z,16.70
2018-04-12T20:43:47.331Z,16.60
2018-04-12T20:47:49.875Z,16.60
2018-04-12T20:51:52.411Z,16.50
2018-04-12T20:55:54.944Z,16.50
2018-04-12T20:59:57.463Z,16.40
2018-04-12T21:04:00.005Z,16.40
2018-04-12T21:08:02.629Z,16.30
2018-04-12T21:12:05.155Z,16.30
2018-04-12T21:16:08.457Z,16.30
2018-04-12T21:20:11.751Z,16.30
2018-04-12T21:24:15.059Z,16.20
2018-04-12T21:28:18.560Z,16.20
2018-04-12T21:32:21.885Z,16.20
2018-04-12T21:36:24.435Z,16.20
2018-04-12T21:40:26.953Z,16.20
2018-04-12T21:44:29.524Z,16.20
2018-04-12T21:48:32.828Z,16.20
2018-04-12T21:52:36.139Z,16.10
2018-04-12T21:56:39.444Z,16.10
2018-04-12T22:00:42.220Z,16.10
2018-04-12T22:04:44.763Z,16.10
2018-04-12T22:08:47.307Z,16.10
2018-04-12T22:12:50.916Z,16.00
2018-04-12T22:16:53.452Z,16.00
2018-04-12T22:20:56.015Z,16.00
2018-04-12T22:24:58.569Z,16.00
2018-04-12T22:29:01.152Z,15.90
2018-04-12T22:33:04.463Z,15.80
2018-04-12T22:37:07.008Z,15.80
2018-04-12T22:41:09.543Z,15.80
2018-04-12T22:45:12.065Z,15.80
2018-04-12T22:49:14.612Z,15.70
2018-04-12T22:53:17.147Z,15.70
2018-04-12T22:57:19.826Z,15.70
2018-04-12T23:01:22.380Z,15.70
2018-04-12T23:05:24.911Z,15.70
2018-04-12T23:09:27.459Z,15.70
2018-04-12T23:13:30.005Z,15.80
2018-04-12T23:17:33.307Z,15.90
2018-04-12T23:21:36.608Z,15.90
2018-04-12T23:25:39.892Z,15.90
2018-04-12T23:29:42.441Z,15.90
2018-04-12T23:33:44.987Z,16.00
2018-04-12T23:37:47.528Z,16.00
2018-04-12T23:41:50.067Z,16.00
2018-04-12T23:45:52.579Z,16.00
2018-04-12T23:49:55.131Z,16.00
2018-04-12T23:53:57.693Z,16.10
2018-04-12T23:58:01.273Z,16.10
